메인 페이지
METAR-TAF:

METAR-TAF

공항 :

오거스타, 메인, 미국

위도: 44-19-14N, 경도: 069-47-50W, 고도: 107m

현재 날씨관측

예보는 28분 전, 19:53시(UTC)에 발표되었습니다.
6kt
온도 -5°C
습도 63%
기압 1004 hPa
시정: 16.1km
고도 7000ft 상공 구름 조금
고도 9500ft 상공 흐림

METAR: KAUG 211953Z AUTO 18006KT 10SM FEW070 OVC095 M05/M11 A2965 RMK AO2 SLP046 T10501111

시각: 15:21 (20:21 UTC)

예보

예보는 1 시간 44분 전, 18:37시(UTC)에 발표되었습니다.
예보 대상 시간: 21일 19시부터 22일 18시까지 (UTC)
5kt
시정: 10km
고도 2500ft 상공 구름 많음
22일 0800시부터 (UTC)
3kt
시정: 3.2km
고도 2500ft 상공 구름 많음
약한소낙눈
22일 1100시부터 (UTC)
북북서3kt
시정: 10km
고도 2500ft 상공 구름 많음

TAF: KAUG 211837Z 2119/2218 17005KT P6SM BKN025 FM220800 35003KT 2SM -SHSN BKN025 FM221100 34003KT P6SM BKN025

4,000개 이상의 공항 관측 자료 및 예보 (METAR 및 TAF 보고).

지도상에서 검색 가능한 기상관측소가 노란 점과 빨간 점으로 표시되어 있습니다.

기상관측소 명을 보려면 표시 위로 마우스를 이동하세요.

날씨 관측과 예보를 보려면 클릭하세요.

지도 변경 : 확대하려면 엑스 표시가 있는 녹색 버튼, 축소하려면 빼기 표시가 있는 녹색 버튼, 다음 페이지의 지도를 보려면 녹색 화살표를 클릭하세요.


METAR-TAF: